createdAt,value
2022-08-05T00:02:27.686Z,21.70
2022-08-05T00:04:56.154Z,21.80
2022-08-05T00:08:00.620Z,21.80
2022-08-05T00:10:10.763Z,22.30
2022-08-05T00:12:55.888Z,21.80
2022-08-05T00:15:54.969Z,21.80
2022-08-05T00:18:10.250Z,21.50
2022-08-05T00:20:48.968Z,21.50
2022-08-05T00:23:15.751Z,21.70
2022-08-05T00:25:46.069Z,21.40
2022-08-05T00:28:13.673Z,21.20
2022-08-05T00:30:41.233Z,21.40
2022-08-05T00:34:42.333Z,21.60
2022-08-05T00:36:16.454Z,21.20
2022-08-05T00:38:44.686Z,21.30
2022-08-05T00:41:11.717Z,21.20
2022-08-05T00:43:46.958Z,21.50
2022-08-05T00:46:15.681Z,21.60
2022-08-05T00:48:51.279Z,21.30
2022-08-05T00:51:50.728Z,21.50
2022-08-05T00:54:09.409Z,21.20
2022-08-05T00:56:38.260Z,21.60
2022-08-05T00:59:13.777Z,21.60
2022-08-05T01:01:48.120Z,21.40
2022-08-05T01:04:15.846Z,21.10
2022-08-05T01:06:43.881Z,20.80
2022-08-05T01:09:19.836Z,20.80
2022-08-05T01:11:49.937Z,21.20
2022-08-05T01:14:34.949Z,21.10
2022-08-05T01:17:24.180Z,21.40
2022-08-05T01:20:13.585Z,21.40
2022-08-05T01:22:57.650Z,21.40
2022-08-05T01:25:43.342Z,21.10
2022-08-05T01:28:28.717Z,21.20
2022-08-05T01:31:02.928Z,21.30
2022-08-05T01:33:36.052Z,21.00
2022-08-05T01:36:12.704Z,20.70
2022-08-05T01:38:45.675Z,20.70
2022-08-05T01:41:18.387Z,21.40
2022-08-05T01:43:50.866Z,21.60
2022-08-05T01:46:42.903Z,21.50
2022-08-05T01:49:23.131Z,21.30
2022-08-05T01:51:58.278Z,21.20
2022-08-05T01:54:31.669Z,21.70
2022-08-05T01:58:10.036Z,21.60
2022-08-05T01:59:50.849Z,21.30
2022-08-05T02:02:20.198Z,20.90
2022-08-05T02:04:59.731Z,20.90
2022-08-05T02:07:26.996Z,20.50
2022-08-05T02:09:57.686Z,20.70
2022-08-05T02:12:46.826Z,20.80
2022-08-05T02:15:33.258Z,21.10
2022-08-05T02:18:33.085Z,21.20
2022-08-05T02:21:00.206Z,21.00
2022-08-05T02:23:33.784Z,21.20
2022-08-05T02:26:06.399Z,21.60
2022-08-05T02:28:41.708Z,21.70
2022-08-05T02:31:17.208Z,21.70
2022-08-05T02:33:57.755Z,21.40
2022-08-05T02:36:31.533Z,21.50
2022-08-05T02:39:00.001Z,21.50
2022-08-05T02:41:36.434Z,21.50
2022-08-05T02:44:17.028Z,21.10
2022-08-05T02:46:59.889Z,20.90
2022-08-05T02:49:36.915Z,21.40
2022-08-05T02:52:11.609Z,21.50
2022-08-05T02:54:50.578Z,21.10
2022-08-05T02:58:10.177Z,21.30
2022-08-05T03:00:07.649Z,21.20
2022-08-05T03:02:39.476Z,21.30
2022-08-05T03:05:10.250Z,20.70
2022-08-05T03:08:00.456Z,20.80
2022-08-05T03:10:26.618Z,21.00
2022-08-05T03:15:23.621Z,21.20
2022-08-05T03:17:54.108Z,21.20
2022-08-05T03:20:22.513Z,21.30
2022-08-05T03:22:51.438Z,21.20
2022-08-05T03:25:32.377Z,21.30
2022-08-05T03:28:08.706Z,21.10
2022-08-05T03:30:36.818Z,21.20
2022-08-05T03:33:06.256Z,20.80
2022-08-05T03:35:40.438Z,20.40
2022-08-05T03:38:10.743Z,20.50
2022-08-05T03:40:41.111Z,21.20
2022-08-05T03:43:59.004Z,21.60
2022-08-05T03:45:59.445Z,21.00
2022-08-05T03:48:30.502Z,21.10
2022-08-05T03:52:38.771Z,21.10
2022-08-05T03:55:54.699Z,21.20
2022-08-05T03:57:34.973Z,21.30
2022-08-05T04:00:15.492Z,21.30
2022-08-05T04:02:58.056Z,21.60
2022-08-05T04:05:33.590Z,21.70
2022-08-05T04:08:14.621Z,21.80
2022-08-05T04:11:01.339Z,21.90
2022-08-05T04:13:50.421Z,21.80
2022-08-05T04:16:16.478Z,21.70
2022-08-05T04:18:54.520Z,21.70
2022-08-05T04:22:10.119Z,21.60
2022-08-05T04:24:19.099Z,21.70
2022-08-05T04:26:46.695Z,21.40
2022-08-05T04:29:13.501Z,21.40
2022-08-05T04:31:41.192Z,21.50
2022-08-05T04:34:18.440Z,21.00
2022-08-05T04:36:50.204Z,21.10
2022-08-05T04:39:20.920Z,21.30
2022-08-05T04:41:51.020Z,20.60
2022-08-05T04:44:21.247Z,20.50
2022-08-05T04:46:57.278Z,21.00
2022-08-05T04:49:38.836Z,20.90
2022-08-05T04:52:13.588Z,21.00
2022-08-05T04:54:41.350Z,21.30
2022-08-05T04:57:08.088Z,21.10
2022-08-05T04:59:39.150Z,21.20
2022-08-05T05:02:37.020Z,21.50
2022-08-05T05:05:01.748Z,21.20
2022-08-05T05:07:31.979Z,21.20
2022-08-05T05:10:02.240Z,21.20
2022-08-05T05:12:29.793Z,21.00
2022-08-05T05:14:56.584Z,21.10
2022-08-05T05:17:24.815Z,21.30
2022-08-05T05:20:11.954Z,21.30
2022-08-05T05:22:40.782Z,21.30
2022-08-05T05:25:16.935Z,21.00
2022-08-05T05:27:48.554Z,21.00
2022-08-05T05:30:29.032Z,21.10
2022-08-05T05:33:00.888Z,21.30
2022-08-05T05:35:37.620Z,21.30
2022-08-05T05:38:09.114Z,21.30
2022-08-05T05:40:45.915Z,21.50
2022-08-05T05:43:16.332Z,21.70
2022-08-05T05:45:55.146Z,21.60
2022-08-05T05:48:27.299Z,21.70
2022-08-05T05:50:54.592Z,22.00
2022-08-05T05:53:22.421Z,22.30
2022-08-05T05:55:52.264Z,22.50
2022-08-05T05:58:30.138Z,22.80
2022-08-05T06:01:04.945Z,22.90
2022-08-05T06:03:53.610Z,23.10
2022-08-05T06:06:28.124Z,23.20
2022-08-05T06:08:57.704Z,23.40
2022-08-05T06:11:24.507Z,23.30
2022-08-05T06:13:53.994Z,23.50
2022-08-05T06:16:28.690Z,23.90
2022-08-05T06:18:59.996Z,23.90
2022-08-05T06:21:36.472Z,23.80
2022-08-05T06:24:11.721Z,23.40
2022-08-05T06:26:52.143Z,23.40
2022-08-05T06:29:42.860Z,23.00
2022-08-05T06:32:26.411Z,23.10
2022-08-05T06:34:57.008Z,23.30
2022-08-05T06:37:57.055Z,23.40
2022-08-05T06:40:13.703Z,23.80
2022-08-05T06:42:40.678Z,23.30
2022-08-05T06:45:09.384Z,23.30
2022-08-05T06:48:36.959Z,23.70
2022-08-05T06:50:24.895Z,23.90
2022-08-05T06:52:58.421Z,23.70
2022-08-05T06:55:25.703Z,23.60
2022-08-05T06:58:03.208Z,23.30
2022-08-05T07:00:41.117Z,23.30
2022-08-05T07:03:09.753Z,23.00
2022-08-05T07:05:37.860Z,23.00
2022-08-05T07:08:10.876Z,23.40
2022-08-05T07:10:39.202Z,23.90
2022-08-05T07:13:57.033Z,24.00
2022-08-05T07:17:58.903Z,24.20
2022-08-05T07:22:17.149Z,24.50
2022-08-05T07:24:52.419Z,25.20
2022-08-05T07:27:19.505Z,25.70
2022-08-05T07:30:27.528Z,25.40
2022-08-05T07:32:36.888Z,25.20
2022-08-05T07:36:02.996Z,25.20
2022-08-05T07:37:55.876Z,25.40
2022-08-05T07:40:31.835Z,24.90
2022-08-05T07:42:59.583Z,25.40
2022-08-05T07:45:57.613Z,25.90
2022-08-05T07:49:00.621Z,25.70
2022-08-05T07:51:08.606Z,25.70
2022-08-05T07:53:51.964Z,25.30
2022-08-05T07:57:02.785Z,24.70
2022-08-05T07:59:08.489Z,25.00
2022-08-05T08:01:35.593Z,25.20
2022-08-05T08:04:24.385Z,25.00
2022-08-05T08:07:07.391Z,25.00
2022-08-05T08:09:34.970Z,25.40
2022-08-05T08:12:09.786Z,25.00
2022-08-05T08:14:38.190Z,25.60
2022-08-05T08:17:15.929Z,25.70
2022-08-05T08:20:22.114Z,25.40
2022-08-05T08:22:32.318Z,25.70
2022-08-05T08:25:03.308Z,25.70
2022-08-05T08:27:39.891Z,26.00
2022-08-05T08:30:29.782Z,25.60
2022-08-05T08:32:58.553Z,25.50
2022-08-05T08:35:35.022Z,25.60
2022-08-05T08:38:07.888Z,25.40
2022-08-05T08:40:35.830Z,25.70
2022-08-05T08:44:57.894Z,25.40
2022-08-05T08:45:54.118Z,25.50
2022-08-05T08:48:42.938Z,25.70
2022-08-05T08:51:54.639Z,25.70
2022-08-05T08:53:55.930Z,24.70
2022-08-05T08:56:23.640Z,25.30
2022-08-05T08:58:54.531Z,25.20
2022-08-05T09:01:21.725Z,25.10
2022-08-05T09:03:55.696Z,25.00
2022-08-05T09:06:30.491Z,24.80
2022-08-05T09:09:01.911Z,24.50
2022-08-05T09:11:53.370Z,24.50
2022-08-05T09:14:58.532Z,25.20
2022-08-05T09:17:40.052Z,25.00
2022-08-05T09:20:02.821Z,24.70
2022-08-05T09:23:05.081Z,24.00
2022-08-05T09:26:01.346Z,24.20
2022-08-05T09:28:24.481Z,24.40
2022-08-05T09:31:43.959Z,24.00
2022-08-05T09:34:10.315Z,24.30
2022-08-05T09:36:56.401Z,24.50
2022-08-05T09:39:44.902Z,25.30
2022-08-05T09:42:23.960Z,24.30
2022-08-05T09:44:56.228Z,24.30
2022-08-05T09:47:35.206Z,24.80
2022-08-05T09:50:18.018Z,24.70
2022-08-05T09:53:26.086Z,24.60
2022-08-05T09:56:12.710Z,24.80
2022-08-05T09:58:41.845Z,23.70
2022-08-05T10:01:15.181Z,24.30
2022-08-05T10:04:00.395Z,24.60
2022-08-05T10:06:28.210Z,25.00
2022-08-05T10:08:55.867Z,24.90
2022-08-05T10:11:23.076Z,25.10
2022-08-05T10:13:54.608Z,24.30
2022-08-05T10:16:52.346Z,24.20
2022-08-05T10:19:23.481Z,24.50
2022-08-05T10:21:59.840Z,24.80
2022-08-05T10:24:27.256Z,24.90
2022-08-05T10:27:00.304Z,24.60
2022-08-05T10:30:06.784Z,25.20
2022-08-05T10:32:54.070Z,24.70
2022-08-05T10:35:04.006Z,24.80
2022-08-05T10:37:44.375Z,25.00
2022-08-05T10:40:44.929Z,24.20
2022-08-05T10:43:31.077Z,24.50
2022-08-05T10:46:07.114Z,24.70
2022-08-05T10:48:56.814Z,25.10
2022-08-05T10:51:57.272Z,25.10
2022-08-05T10:55:04.683Z,25.40
2022-08-05T10:57:33.830Z,25.30
2022-08-05T11:00:41.996Z,25.30
2022-08-05T11:03:24.342Z,25.30
2022-08-05T11:06:08.411Z,25.10
2022-08-05T11:08:37.443Z,24.30
2022-08-05T11:11:44.434Z,24.90
2022-08-05T11:14:57.778Z,24.90
2022-08-05T11:17:58.769Z,25.20
2022-08-05T11:20:34.148Z,25.30
2022-08-05T11:23:08.822Z,25.30
2022-08-05T11:26:04.283Z,25.50
2022-08-05T11:28:36.049Z,25.30
2022-08-05T11:31:06.581Z,24.80
2022-08-05T11:33:48.983Z,24.30
2022-08-05T11:36:34.173Z,24.40
2022-08-05T11:39:08.501Z,24.30
2022-08-05T11:41:57.850Z,24.60
2022-08-05T11:44:53.262Z,24.60
2022-08-05T11:47:49.412Z,25.30
2022-08-05T11:50:14.271Z,25.30
2022-08-05T11:52:41.724Z,24.80
2022-08-05T11:55:12.725Z,24.60
2022-08-05T11:58:10.968Z,24.90
2022-08-05T12:00:37.992Z,24.80
2022-08-05T12:03:28.467Z,24.80
2022-08-05T12:06:06.125Z,25.20
2022-08-05T12:08:50.025Z,24.90
2022-08-05T12:11:28.445Z,25.00
2022-08-05T12:14:08.490Z,24.70
2022-08-05T12:16:45.356Z,25.10
2022-08-05T12:20:17.247Z,24.60
2022-08-05T12:22:01.225Z,24.90
2022-08-05T12:24:28.040Z,24.30
2022-08-05T12:26:54.937Z,24.30
2022-08-05T12:29:23.955Z,24.70
2022-08-05T12:31:57.347Z,24.50
2022-08-05T12:34:32.686Z,24.80
2022-08-05T12:37:07.411Z,24.30
2022-08-05T12:39:38.513Z,24.50
2022-08-05T12:42:16.052Z,24.80
2022-08-05T12:44:44.920Z,24.80
2022-08-05T12:47:13.632Z,24.80
2022-08-05T12:50:04.747Z,25.00
2022-08-05T12:52:39.407Z,24.90
2022-08-05T12:55:23.501Z,24.60
2022-08-05T12:58:38.415Z,24.00
2022-08-05T13:02:03.099Z,24.60
2022-08-05T13:03:32.296Z,24.30
2022-08-05T13:06:00.866Z,24.10
2022-08-05T13:08:32.358Z,23.60
2022-08-05T13:11:01.176Z,24.30
2022-08-05T13:14:06.134Z,23.70
2022-08-05T13:16:17.103Z,23.70
2022-08-05T13:18:55.037Z,23.10
2022-08-05T13:21:27.976Z,23.40
2022-08-05T13:24:05.446Z,23.50
2022-08-05T13:26:32.379Z,24.30
2022-08-05T13:29:00.636Z,24.50
2022-08-05T13:31:34.006Z,24.70
2022-08-05T13:34:22.810Z,24.00
2022-08-05T13:36:53.043Z,23.80
2022-08-05T13:40:13.016Z,24.40
2022-08-05T13:42:07.016Z,24.20
2022-08-05T13:44:34.737Z,23.50
2022-08-05T13:47:08.782Z,24.10
2022-08-05T13:49:36.390Z,24.90
2022-08-05T13:52:17.543Z,25.00
2022-08-05T13:54:53.234Z,25.20
2022-08-05T13:57:21.419Z,25.20
2022-08-05T13:59:57.107Z,24.50
2022-08-05T14:02:26.645Z,24.30
2022-08-05T14:05:12.010Z,24.50
2022-08-05T14:07:59.965Z,24.80
2022-08-05T14:10:31.450Z,24.90
2022-08-05T14:12:58.796Z,25.00
2022-08-05T14:16:09.325Z,24.20
2022-08-05T14:18:14.777Z,24.60
2022-08-05T14:20:46.858Z,25.00
2022-08-05T14:23:23.470Z,25.00
2022-08-05T14:25:54.587Z,25.00
2022-08-05T14:28:26.847Z,25.00
2022-08-05T14:30:54.703Z,24.60
2022-08-05T14:33:23.903Z,24.80
2022-08-05T14:35:54.358Z,24.80
2022-08-05T14:38:32.169Z,24.30
2022-08-05T14:41:06.275Z,24.50
2022-08-05T14:44:01.538Z,24.50
2022-08-05T14:46:28.760Z,24.80
2022-08-05T14:49:06.635Z,24.50
2022-08-05T14:51:38.785Z,24.40
2022-08-05T14:54:27.841Z,23.70
2022-08-05T14:56:58.444Z,24.10
2022-08-05T14:59:29.803Z,22.50
2022-08-05T15:02:04.002Z,23.10
2022-08-05T15:04:50.905Z,23.00
2022-08-05T15:08:08.612Z,22.90
2022-08-05T15:10:04.589Z,23.00
2022-08-05T15:12:58.005Z,24.00
2022-08-05T15:15:55.341Z,23.10
2022-08-05T15:18:11.402Z,23.30
2022-08-05T15:20:41.565Z,23.40
2022-08-05T15:23:12.063Z,22.60
2022-08-05T15:25:41.011Z,22.40
2022-08-05T15:28:27.272Z,22.80
2022-08-05T15:30:55.240Z,23.90
2022-08-05T15:34:05.345Z,23.90
2022-08-05T15:36:17.862Z,23.70
2022-08-05T15:40:41.593Z,23.30
2022-08-05T15:41:58.353Z,24.00
2022-08-05T15:44:25.592Z,24.10
2022-08-05T15:46:54.568Z,24.00
2022-08-05T15:49:40.829Z,24.00
2022-08-05T15:52:13.349Z,23.90
2022-08-05T15:54:43.479Z,23.70
2022-08-05T15:57:10.793Z,23.00
2022-08-05T15:59:38.205Z,23.60
2022-08-05T16:02:05.902Z,23.60
2022-08-05T16:04:42.365Z,22.90
2022-08-05T16:07:10.574Z,23.60
2022-08-05T16:09:37.839Z,23.50
2022-08-05T16:12:09.427Z,23.80
2022-08-05T16:14:38.217Z,23.40
2022-08-05T16:17:05.201Z,23.00
2022-08-05T16:20:02.909Z,23.80
2022-08-05T16:22:24.107Z,23.30
2022-08-05T16:24:54.415Z,23.40
2022-08-05T16:27:47.179Z,23.40
2022-08-05T16:30:23.247Z,23.40
2022-08-05T16:32:52.701Z,23.60
2022-08-05T16:35:19.520Z,23.30
2022-08-05T16:38:15.678Z,22.40
2022-08-05T16:40:41.784Z,23.30
2022-08-05T16:43:08.635Z,23.30
2022-08-05T16:46:06.776Z,23.10
2022-08-05T16:48:25.750Z,23.20
2022-08-05T16:50:53.301Z,23.50
2022-08-05T16:53:22.885Z,24.00
2022-08-05T16:55:59.427Z,23.80
2022-08-05T16:58:26.719Z,23.90
2022-08-05T17:00:53.571Z,23.90
2022-08-05T17:03:21.182Z,23.90
2022-08-05T17:05:54.310Z,22.60
2022-08-05T17:08:36.265Z,22.90
2022-08-05T17:11:17.000Z,23.30
2022-08-05T17:13:44.811Z,22.00
2022-08-05T17:16:29.918Z,22.20
2022-08-05T17:18:59.076Z,22.20
2022-08-05T17:21:35.696Z,21.70
2022-08-05T17:24:30.375Z,22.10
2022-08-05T17:26:58.622Z,22.50
2022-08-05T17:29:33.213Z,22.70
2022-08-05T17:32:08.303Z,22.60
2022-08-05T17:34:35.530Z,21.70
2022-08-05T17:37:02.356Z,21.50
2022-08-05T17:39:33.574Z,21.30
2022-08-05T17:42:18.316Z,21.80
2022-08-05T17:44:50.290Z,22.10
2022-08-05T17:47:21.976Z,21.90
2022-08-05T17:50:04.264Z,22.10
2022-08-05T17:52:53.190Z,22.10
2022-08-05T17:55:22.412Z,21.80
2022-08-05T17:57:50.288Z,22.00
2022-08-05T18:00:18.655Z,21.80
2022-08-05T18:02:47.269Z,22.10
2022-08-05T18:05:16.987Z,21.50
2022-08-05T18:07:44.693Z,21.10
2022-08-05T18:10:20.431Z,21.50
2022-08-05T18:12:48.936Z,22.70
2022-08-05T18:15:15.798Z,22.60
2022-08-05T18:18:01.414Z,22.00
2022-08-05T18:20:31.944Z,22.10
2022-08-05T18:23:11.154Z,22.90
2022-08-05T18:25:45.533Z,22.90
2022-08-05T18:28:16.497Z,22.70
2022-08-05T18:30:50.833Z,23.20
2022-08-05T18:33:22.931Z,23.30
2022-08-05T18:36:03.605Z,23.60
2022-08-05T18:38:36.725Z,23.70
2022-08-05T18:41:56.551Z,23.80
2022-08-05T18:43:54.591Z,23.80
2022-08-05T18:46:21.440Z,23.60
2022-08-05T18:48:53.645Z,23.60
2022-08-05T18:52:04.848Z,23.50
2022-08-05T18:54:28.342Z,23.30
2022-08-05T18:56:58.157Z,22.20
2022-08-05T18:59:42.694Z,21.80
2022-08-05T19:02:26.820Z,22.00
2022-08-05T19:05:02.419Z,21.70
2022-08-05T19:07:46.331Z,21.10
2022-08-05T19:10:14.772Z,21.00
2022-08-05T19:12:43.239Z,21.90
2022-08-05T19:15:57.844Z,21.40
2022-08-05T19:18:08.826Z,20.30
2022-08-05T19:20:41.383Z,20.60
2022-08-05T19:24:03.904Z,21.00
2022-08-05T19:26:01.053Z,20.80
2022-08-05T19:28:28.997Z,21.90
2022-08-05T19:30:55.994Z,21.30
2022-08-05T19:33:35.107Z,21.20
2022-08-05T19:36:03.908Z,21.10
2022-08-05T19:38:35.697Z,20.70
2022-08-05T19:41:06.727Z,21.20
2022-08-05T19:44:05.403Z,22.60
2022-08-05T19:46:29.196Z,23.00
2022-08-05T19:49:03.307Z,23.20
2022-08-05T19:52:04.750Z,23.20
2022-08-05T19:54:26.955Z,23.00
2022-08-05T19:57:02.237Z,22.90
2022-08-05T20:00:00.658Z,23.00
2022-08-05T20:02:18.746Z,23.10
2022-08-05T20:04:48.231Z,23.00
2022-08-05T20:07:15.441Z,23.10
2022-08-05T20:09:54.709Z,23.00
2022-08-05T20:12:24.758Z,23.20
2022-08-05T20:14:53.013Z,23.20
2022-08-05T20:17:23.588Z,23.10
2022-08-05T20:19:57.034Z,23.20
2022-08-05T20:22:27.121Z,23.20
2022-08-05T20:24:55.304Z,23.20
2022-08-05T20:27:26.482Z,23.20
2022-08-05T20:29:57.586Z,23.20
2022-08-05T20:32:26.795Z,23.20
2022-08-05T20:34:54.078Z,23.20
2022-08-05T20:38:04.532Z,23.10
2022-08-05T20:40:08.683Z,23.20
2022-08-05T20:42:35.639Z,23.00
2022-08-05T20:45:02.855Z,22.60
2022-08-05T20:47:31.851Z,22.20
2022-08-05T20:49:59.578Z,22.10
2022-08-05T20:52:28.696Z,22.20
2022-08-05T20:55:54.236Z,21.80
2022-08-05T20:57:44.473Z,21.80
2022-08-05T21:00:34.886Z,21.90
2022-08-05T21:03:06.745Z,22.10
2022-08-05T21:05:48.149Z,22.20
2022-08-05T21:08:42.515Z,22.20
2022-08-05T21:11:12.104Z,22.10
2022-08-05T21:13:55.747Z,22.00
2022-08-05T21:16:29.713Z,22.00
2022-08-05T21:18:59.866Z,22.40
2022-08-05T21:21:43.827Z,22.60
2022-08-05T21:24:15.330Z,22.70
2022-08-05T21:26:47.151Z,22.70
2022-08-05T21:29:20.617Z,22.80
2022-08-05T21:31:53.129Z,22.70
2022-08-05T21:34:20.930Z,22.70
2022-08-05T21:36:49.202Z,22.70
2022-08-05T21:39:16.985Z,22.70
2022-08-05T21:42:01.284Z,22.70
2022-08-05T21:44:31.006Z,22.70
2022-08-05T21:46:58.859Z,22.70
2022-08-05T21:49:48.528Z,23.00
2022-08-05T21:52:16.412Z,23.20
2022-08-05T21:54:51.230Z,23.20
2022-08-05T21:57:31.365Z,23.20
2022-08-05T22:00:11.088Z,23.20
2022-08-05T22:02:39.263Z,23.20
2022-08-05T22:05:09.240Z,23.20
2022-08-05T22:07:40.392Z,23.20
2022-08-05T22:10:25.588Z,23.20
2022-08-05T22:12:57.494Z,23.10
2022-08-05T22:16:02.071Z,23.20
2022-08-05T22:18:14.449Z,23.10
2022-08-05T22:20:41.790Z,23.10
2022-08-05T22:24:02.095Z,23.10
2022-08-05T22:26:35.463Z,23.10
2022-08-05T22:29:02.801Z,23.10
2022-08-05T22:31:30.748Z,23.10
2022-08-05T22:34:12.900Z,23.10
2022-08-05T22:36:52.369Z,23.10
2022-08-05T22:39:21.597Z,23.10
2022-08-05T22:42:10.197Z,23.00
2022-08-05T22:44:35.337Z,23.00
2022-08-05T22:47:05.799Z,23.10
2022-08-05T22:50:20.226Z,23.10
2022-08-05T22:52:30.409Z,23.10
2022-08-05T22:55:01.218Z,23.10
2022-08-05T22:57:34.054Z,23.00
2022-08-05T23:00:05.528Z,23.00
2022-08-05T23:02:35.520Z,23.00
2022-08-05T23:05:17.479Z,23.00
2022-08-05T23:07:56.024Z,23.00
2022-08-05T23:10:23.611Z,23.00
2022-08-05T23:12:54.454Z,23.00
2022-08-05T23:15:28.858Z,23.00
2022-08-05T23:17:59.711Z,22.90
2022-08-05T23:20:28.719Z,22.90
2022-08-05T23:22:55.918Z,22.90
2022-08-05T23:25:52.197Z,22.90
2022-08-05T23:28:10.981Z,22.90
2022-08-05T23:30:39.718Z,22.90
2022-08-05T23:33:07.492Z,22.90
2022-08-05T23:35:50.536Z,22.90
2022-08-05T23:38:18.049Z,22.90
2022-08-05T23:40:50.185Z,22.90
2022-08-05T23:43:25.472Z,22.80
2022-08-05T23:46:05.039Z,22.90
2022-08-05T23:49:00.746Z,22.80
2022-08-05T23:51:53.596Z,22.80
2022-08-05T23:54:34.036Z,22.80
2022-08-05T23:57:06.411Z,22.80
